Circle Line Brooklyn — WDE8160 — position and weather

sailwx.info

Track history (hours):
 
Tides and Currents Weather Stations Pressure Air Temp Water Temp Dewpoint Dewpoint Depression Visibility Wind Speed Wind Dir Waves Ship Positions

Circle Line Brooklyn

Owner: Circle Line Sight Seeing Yachts Inc., New York, NY. More information available from US FCC via Universal Licensing System and Coast Guard Vessel Documentation Center.

Last reported at 2015-May-23 20:33 UTC. Time now 2015-May-24 03:16 UTC.
Position N 40°46' W 074°00'.

MMSI: 367402250.

Date/timePositionNaut miles runAvg speedWind from/ knotsBaromVisibWave heightAir tempDewpointWater temp
2015-May-23 20:33N 40°46' W 074°00'3 2.7
2015-May-23 19:20N 40°47' W 073°56'810.2
2015-May-23 18:34N 40°41' W 074°03'5 4.8
2015-May-23 17:32N 40°46' W 074°00'0 0.0
2015-May-23 16:33N 40°46' W 074°00'2 1.8
2015-May-23 15:09N 40°46' W 073°57'610.8
2015-May-23 14:33N 40°41' W 074°03'5 5.0
2015-May-23 13:33N 40°46' W 074°00'0 0.0
2015-May-23 00:33N 40°46' W 074°00'2 2.3
2015-May-22 23:33N 40°45' W 073°58'2 2.1
2015-May-22 22:31N 40°46' W 074°00'0 0.0
2015-May-22 21:31N 40°46' W 074°00'3 3.4
2015-May-22 20:33N 40°43' W 073°58'3 3.3
2015-May-22 19:34N 40°46' W 074°00'0 0.0
2015-May-22 18:33N 40°46' W 074°00'5 5.1
2015-May-22 17:33N 40°41' W 074°03'5 5.1
2015-May-22 16:33N 40°46' W 074°00'0 0.0
2015-May-22 15:33N 40°46' W 074°00'0 0.0
2015-May-21 21:09N 40°46' W 074°00'3 4.6
2015-May-21 20:33N 40°44' W 073°58'3 2.7
2015-May-21 19:34N 40°46' W 074°00'0 0.0
2015-May-21 18:33N 40°46' W 074°00'5 5.0
2015-May-21 17:33N 40°41' W 074°03'5 4.9
2015-May-21 16:32N 40°46' W 074°00'0 0.0
2015-May-21 15:33N 40°46' W 074°00'  
2015-May-18 20:33N 40°46' W 074°00'5 4.7
2015-May-18 19:32N 40°49' W 073°56'9 9.8
2015-May-18 18:33N 40°41' W 074°02'5 4.5
2015-May-18 17:28N 40°46' W 074°00'0 0.1
2015-May-18 16:33N 40°46' W 074°00'4 3.8
2015-May-18 15:27N 40°49' W 073°56'9 9.9
2015-May-18 14:33N 40°41' W 074°03'5 4.9
2015-May-18 13:33N 40°46' W 074°00'0 0.0
2015-May-18 00:33N 40°46' W 074°00'2 2.0
2015-May-17 23:34N 40°45' W 073°58'2 2.0
2015-May-17 22:32N 40°46' W 074°00'0 0.0
2015-May-17 21:32N 40°46' W 074°00'3 3.4
2015-May-17 20:33N 40°43' W 073°59'3 3.4
2015-May-17 19:33N 40°46' W 074°00'1 0.7
2015-May-17 18:33N 40°45' W 074°01'4 4.1
2015-May-17 17:33N 40°41' W 074°02'5 4.6
2015-May-17 16:33N 40°46' W 074°00'0 0.0
2015-May-17 15:33N 40°46' W 074°00'0 0.0
2015-May-17 03:27N 40°46' W 074°00'2 2.5
2015-May-17 02:33N 40°44' W 073°58'4 3.9
2015-May-17 01:33N 40°42' W 074°02'4 4.2
2015-May-17 00:32N 40°46' W 074°00'0 0.0
2015-May-16 23:32N 40°46' W 074°00'0 0.0
2015-May-16 22:29N 40°46' W 074°00'0 0.0
2015-May-16 21:32N 40°46' W 074°00'3 2.8
2015-May-16 20:33N 40°43' W 074°01'2 2.3
2015-May-16 19:33N 40°43' W 073°58'4 3.5
2015-May-16 18:33N 40°46' W 074°00'0 0.4
2015-May-16 17:32N 40°46' W 074°00'0 0.0
2015-May-16 16:32N 40°46' W 074°00'0 0.0
2015-May-16 15:29N 40°46' W 074°00'4 4.1
2015-May-16 14:33N 40°42' W 074°02'4 0.3
2015-May-16 01:33N 40°46' W 074°00'4 3.7
2015-May-16 00:33N 40°42' W 073°59'3 2.6
2015-May-15 23:33N 40°41' W 074°03'5 4.4
2015-May-15 22:27N 40°46' W 074°00'0 0.0
2015-May-15 21:33N 40°46' W 074°00'0 0.0
2015-May-15 20:33N 40°46' W 074°00'2 1.6
2015-May-15 19:04N 40°46' W 073°57'612.2
2015-May-15 18:33N 40°41' W 074°02'5 4.6
2015-May-15 17:31N 40°46' W 074°00'0 0.0
2015-May-15 16:31N 40°46' W 074°00'4 3.9
2015-May-15 15:26N 40°49' W 073°56'910.1
2015-May-15 14:34N 40°41' W 074°02'5 4.3
2015-May-15 13:26N 40°46' W 074°00'1 0.0
2015-May-14 19:33N 40°45' W 074°01'1 0.8
2015-May-14 18:31N 40°46' W 074°00'0 0.0
2015-May-14 17:31N 40°46' W 074°00'0 0.3
2015-May-14 16:33N 40°46' W 074°01'4 4.3
2015-May-14 15:33N 40°42' W 074°02'4 3.3
2015-May-14 14:11N 40°46' W 074°00'  
Track history (hours):
 
Tides and Currents Weather Stations Pressure Air Temp Water Temp Dewpoint Dewpoint Depression Visibility Wind Speed Wind Dir Waves Ship Positions

Circle Line Brooklyn

Owner: Circle Line Sight Seeing Yachts Inc., New York, NY. More information available from US FCC via Universal Licensing System and Coast Guard Vessel Documentation Center.

Last reported at 2015-May-23 20:33 UTC. Time now 2015-May-24 03:16 UTC.
Position N 40°46' W 074°00'.

MMSI: 367402250.

Date/timePositionNaut miles runAvg speedWind from/ knotsBaromVisibWave heightAir tempDewpointWater temp
2015-May-23 20:33N 40°46' W 074°00'3 2.7
2015-May-23 19:20N 40°47' W 073°56'810.2
2015-May-23 18:34N 40°41' W 074°03'5 4.8
2015-May-23 17:32N 40°46' W 074°00'0 0.0
2015-May-23 16:33N 40°46' W 074°00'2 1.8
2015-May-23 15:09N 40°46' W 073°57'610.8
2015-May-23 14:33N 40°41' W 074°03'5 5.0
2015-May-23 13:33N 40°46' W 074°00'0 0.0
2015-May-23 00:33N 40°46' W 074°00'2 2.3
2015-May-22 23:33N 40°45' W 073°58'2 2.1
2015-May-22 22:31N 40°46' W 074°00'0 0.0
2015-May-22 21:31N 40°46' W 074°00'3 3.4
2015-May-22 20:33N 40°43' W 073°58'3 3.3
2015-May-22 19:34N 40°46' W 074°00'0 0.0
2015-May-22 18:33N 40°46' W 074°00'5 5.1
2015-May-22 17:33N 40°41' W 074°03'5 5.1
2015-May-22 16:33N 40°46' W 074°00'0 0.0
2015-May-22 15:33N 40°46' W 074°00'0 0.0
2015-May-21 21:09N 40°46' W 074°00'3 4.6
2015-May-21 20:33N 40°44' W 073°58'3 2.7
2015-May-21 19:34N 40°46' W 074°00'0 0.0
2015-May-21 18:33N 40°46' W 074°00'5 5.0
2015-May-21 17:33N 40°41' W 074°03'5 4.9
2015-May-21 16:32N 40°46' W 074°00'0 0.0
2015-May-21 15:33N 40°46' W 074°00'  
2015-May-18 20:33N 40°46' W 074°00'5 4.7
2015-May-18 19:32N 40°49' W 073°56'9 9.8
2015-May-18 18:33N 40°41' W 074°02'5 4.5
2015-May-18 17:28N 40°46' W 074°00'0 0.1
2015-May-18 16:33N 40°46' W 074°00'4 3.8
2015-May-18 15:27N 40°49' W 073°56'9 9.9
2015-May-18 14:33N 40°41' W 074°03'5 4.9
2015-May-18 13:33N 40°46' W 074°00'0 0.0
2015-May-18 00:33N 40°46' W 074°00'2 2.0
2015-May-17 23:34N 40°45' W 073°58'2 2.0
2015-May-17 22:32N 40°46' W 074°00'0 0.0
2015-May-17 21:32N 40°46' W 074°00'3 3.4
2015-May-17 20:33N 40°43' W 073°59'3 3.4
2015-May-17 19:33N 40°46' W 074°00'1 0.7
2015-May-17 18:33N 40°45' W 074°01'4 4.1
2015-May-17 17:33N 40°41' W 074°02'5 4.6
2015-May-17 16:33N 40°46' W 074°00'0 0.0
2015-May-17 15:33N 40°46' W 074°00'0 0.0
2015-May-17 03:27N 40°46' W 074°00'2 2.5
2015-May-17 02:33N 40°44' W 073°58'4 3.9
2015-May-17 01:33N 40°42' W 074°02'4 4.2
2015-May-17 00:32N 40°46' W 074°00'0 0.0
2015-May-16 23:32N 40°46' W 074°00'0 0.0
2015-May-16 22:29N 40°46' W 074°00'0 0.0
2015-May-16 21:32N 40°46' W 074°00'3 2.8
2015-May-16 20:33N 40°43' W 074°01'2 2.3
2015-May-16 19:33N 40°43' W 073°58'4 3.5
2015-May-16 18:33N 40°46' W 074°00'0 0.4
2015-May-16 17:32N 40°46' W 074°00'0 0.0
2015-May-16 16:32N 40°46' W 074°00'0 0.0
2015-May-16 15:29N 40°46' W 074°00'4 4.1
2015-May-16 14:33N 40°42' W 074°02'4 0.3
2015-May-16 01:33N 40°46' W 074°00'4 3.7
2015-May-16 00:33N 40°42' W 073°59'3 2.6
2015-May-15 23:33N 40°41' W 074°03'5 4.4
2015-May-15 22:27N 40°46' W 074°00'0 0.0
2015-May-15 21:33N 40°46' W 074°00'0 0.0
2015-May-15 20:33N 40°46' W 074°00'2 1.6
2015-May-15 19:04N 40°46' W 073°57'612.2
2015-May-15 18:33N 40°41' W 074°02'5 4.6
2015-May-15 17:31N 40°46' W 074°00'0 0.0
2015-May-15 16:31N 40°46' W 074°00'4 3.9
2015-May-15 15:26N 40°49' W 073°56'910.1
2015-May-15 14:34N 40°41' W 074°02'5 4.3
2015-May-15 13:26N 40°46' W 074°00'1 0.0
2015-May-14 19:33N 40°45' W 074°01'1 0.8
2015-May-14 18:31N 40°46' W 074°00'0 0.0
2015-May-14 17:31N 40°46' W 074°00'0 0.3
2015-May-14 16:33N 40°46' W 074°01'4 4.3
2015-May-14 15:33N 40°42' W 074°02'4 3.3
2015-May-14 14:11N 40°46' W 074°00'  

Dump ship's entire track history